Flight Track Log - Related Links

Times and Time Zones

All times are in EDT time to prevent confusion due to time zone crossing. See the N500TC flight status page for this flight to view local times or setup timezone preferences in your user account.


Time Position Orientation Groundspeed Altitude Reporting Facility
EDT Latitude Longitude Course Direction KTS MPH feet Rate Location/Type
Tue 09:21:00 PM 34.3361 -79.6764 15° North  Level Estimated
Tue 09:22:00 PM 34.3663 -79.6668 15° North  Level Estimated
Tue 09:23:00 PM 34.3964 -79.6573 15° North  Level Estimated
Tue 09:24:00 PM 34.4266 -79.6478 15° North  Level Estimated
Tue 09:25:00 PM 34.4567 -79.6382 15° North  Level Estimated
Tue 09:26:00 PM 34.4869 -79.6287 15° North  Level Estimated
Tue 09:27:00 PM 34.5170 -79.6191 15° North  Level Estimated
Tue 09:28:00 PM 34.5472 -79.6095 15° North  Level Estimated
Tue 09:29:00 PM 34.5773 -79.6000 15° North  Level Estimated
Tue 09:30:00 PM 34.6074 -79.5904 15° North  Level Estimated
Tue 09:31:00 PM 34.6376 -79.5808 15° North  Level Estimated
Tue 09:32:00 PM 34.6677 -79.5712 15° North  Level Estimated
Tue 09:33:00 PM 34.6979 -79.5616 15° North  Level Estimated
Tue 09:34:00 PM 34.7280 -79.5520 15° North  Level Estimated
Tue 09:35:00 PM 34.7581 -79.5424 15° North  Level Estimated
Tue 09:36:00 PM 34.7883 -79.5328 15° North  Level Estimated
Tue 09:37:00 PM 34.8184 -79.5231 15° North  Level Estimated
Tue 09:38:00 PM 34.8486 -79.5135 15° North  Level Estimated
Tue 09:39:00 PM 34.8787 -79.5038 15° North  Level Estimated
Tue 09:40:00 PM 34.9089 -79.4942 15° North  Level Estimated
Tue 09:41:00 PM 34.9390 -79.4845 15° North  Level Estimated
Tue 09:42:00 PM 34.9691 -79.4749 15° North  Level Estimated
Tue 09:43:00 PM 34.9993 -79.4652 15° North  Level Estimated
Tue 09:44:00 PM 35.0294 -79.4555 15° North  Level Estimated
Tue 09:45:00 PM 35.0595 -79.4458 15° North  Level Estimated
Tue 09:46:00 PM 35.0896 -79.4361 15° North  Level Estimated
Tue 09:47:00 PM 35.1198 -79.4264 15° North  Level Estimated
Tue 09:48:00 PM 35.1499 -79.4167 15° North  Level Estimated
Tue 09:49:00 PM 35.1800 -79.4070 15° North  Level Estimated
Tue 09:50:00 PM 35.2102 -79.3973 15° North  Level Estimated
Tue 09:51:00 PM 35.2380 -79.3883 15° North  Level Estimated
Tue 09:52:00 PM 35.2380 -79.3883 54° Northeast  Level Estimated
Tue 09:53:00 PM 35.2380 -79.3883 54° Northeast  Level Estimated
Tue 09:54:00 PM 35.2380 -79.3883 54° Northeast  Level Estimated
Tue 09:55:00 PM 35.2380 -79.3883 54° Northeast  Level Estimated
Tue 09:56:00 PM 35.2380 -79.3883 54° Northeast  Level Estimated
Tue 09:57:00 PM 35.2380 -79.3883 54° Northeast  Level Estimated
Tue 09:58:00 PM 35.2380 -79.3883 54° Northeast  Level Estimated
Tue 09:59:00 PM 35.2380 -79.3883 54° Northeast  Level Estimated
Tue 10:00:00 PM 35.2380 -79.3883 54° Northeast  Level Estimated
Tue 10:01:00 PM 35.2380 -79.3883 54° Northeast  Level Estimated
Tue 10:02:00 PM 35.2380 -79.3883 54° Northeast  Level Estimated
Tue 10:03:00 PM 35.2380 -79.3883 54° Northeast  Level Estimated
Tue 10:04:00 PM 35.2380 -79.3883 54° Northeast  Level Estimated
Tue 10:05:00 PM 35.2380 -79.3883 54° Northeast  Level Estimated
Tue 10:06:00 PM 35.2380 -79.3883 54° Northeast  Level Estimated

Login

Don't have an account? Register now (free) for customized features, flight alerts, and more!